createdAt,value
2023-01-06T00:00:32.546Z,7.94
2023-01-06T00:02:59.123Z,7.95
2023-01-06T00:05:26.099Z,7.92
2023-01-06T00:07:53.107Z,7.78
2023-01-06T00:10:20.334Z,7.68
2023-01-06T00:12:48.479Z,7.92
2023-01-06T00:15:16.519Z,7.90
2023-01-06T00:17:43.227Z,8.01
2023-01-06T00:20:11.174Z,7.87
2023-01-06T00:22:40.244Z,7.66
2023-01-06T00:25:07.345Z,7.82
2023-01-06T00:27:33.839Z,7.79
2023-01-06T00:30:00.355Z,7.73
2023-01-06T00:32:26.870Z,7.65
2023-01-06T00:34:53.405Z,7.51
2023-01-06T00:37:20.043Z,7.57
2023-01-06T00:39:46.531Z,7.56
2023-01-06T00:42:13.170Z,7.72
2023-01-06T00:44:40.365Z,7.58
2023-01-06T00:47:09.260Z,7.33
2023-01-06T00:49:36.201Z,7.25
2023-01-06T00:52:03.724Z,7.24
2023-01-06T00:54:30.288Z,7.18
2023-01-06T00:56:57.025Z,7.15
2023-01-06T00:59:25.261Z,7.30
2023-01-06T01:01:55.078Z,7.27
2023-01-06T01:04:24.026Z,7.17
2023-01-06T01:06:51.457Z,7.15
2023-01-06T01:09:30.260Z,7.07
2023-01-06T01:12:10.150Z,7.02
2023-01-06T01:14:42.428Z,7.18
2023-01-06T01:17:10.875Z,7.39
2023-01-06T01:19:38.668Z,7.45
2023-01-06T01:22:06.115Z,7.33
2023-01-06T01:24:32.877Z,7.28
2023-01-06T01:26:59.824Z,7.28
2023-01-06T01:29:26.833Z,7.40
2023-01-06T01:31:53.858Z,7.33
2023-01-06T01:34:21.401Z,7.14
2023-01-06T01:36:49.778Z,7.15
2023-01-06T01:39:18.847Z,7.17
2023-01-06T01:41:45.734Z,7.13
2023-01-06T01:44:54.702Z,7.25
2023-01-06T01:47:27.320Z,7.23
2023-01-06T01:49:58.572Z,7.18
2023-01-06T01:52:25.885Z,7.13
2023-01-06T01:54:55.472Z,7.00
2023-01-06T01:57:29.780Z,7.00
2023-01-06T01:59:57.460Z,7.07
2023-01-06T02:02:24.703Z,7.11
2023-01-06T02:04:54.968Z,7.13
2023-01-06T02:07:25.264Z,6.77
2023-01-06T02:10:02.355Z,6.85
2023-01-06T02:12:29.294Z,6.99
2023-01-06T02:14:56.675Z,6.97
2023-01-06T02:17:49.733Z,7.02
2023-01-06T02:20:34.166Z,7.09
2023-01-06T02:23:18.798Z,6.98
2023-01-06T02:25:54.015Z,7.05
2023-01-06T02:28:39.820Z,7.16
2023-01-06T02:31:31.045Z,6.89
2023-01-06T02:34:03.569Z,6.98
2023-01-06T02:36:48.285Z,7.07
2023-01-06T02:39:47.947Z,7.15
2023-01-06T02:42:24.778Z,7.39
2023-01-06T02:45:21.789Z,7.04
2023-01-06T02:48:07.927Z,7.15
2023-01-06T02:50:37.040Z,6.93
2023-01-06T02:53:24.735Z,7.08
2023-01-06T02:55:53.939Z,7.23
2023-01-06T02:58:42.509Z,7.16
2023-01-06T03:01:22.725Z,7.32
2023-01-06T03:03:51.732Z,7.52
2023-01-06T03:06:22.449Z,7.45
2023-01-06T03:08:52.128Z,7.27
2023-01-06T03:11:18.931Z,7.00
2023-01-06T03:14:05.951Z,7.03
2023-01-06T03:16:32.499Z,7.07
2023-01-06T03:18:59.556Z,6.99
2023-01-06T03:21:31.922Z,7.05
2023-01-06T03:23:58.628Z,7.04
2023-01-06T03:26:26.418Z,7.06
2023-01-06T03:28:53.035Z,7.13
2023-01-06T03:31:34.556Z,7.17
2023-01-06T03:34:07.023Z,7.04
2023-01-06T03:37:11.931Z,7.19
2023-01-06T03:39:47.118Z,7.31
2023-01-06T03:43:03.967Z,7.45
2023-01-06T03:45:50.868Z,7.18
2023-01-06T03:48:34.234Z,7.43
2023-01-06T03:51:10.122Z,7.26
2023-01-06T03:53:46.774Z,7.54
2023-01-06T03:56:25.590Z,7.39
2023-01-06T03:58:57.256Z,7.25
2023-01-06T04:01:26.558Z,7.14
2023-01-06T04:03:55.586Z,6.99
2023-01-06T04:06:22.671Z,6.99
2023-01-06T04:08:49.308Z,7.00
2023-01-06T04:11:34.540Z,7.33
2023-01-06T04:14:01.643Z,7.36
2023-01-06T04:16:28.242Z,7.11
2023-01-06T04:18:54.939Z,7.25
2023-01-06T04:21:21.531Z,7.23
2023-01-06T04:23:48.099Z,7.04
2023-01-06T04:26:14.668Z,7.09
2023-01-06T04:28:41.286Z,6.87
2023-01-06T04:31:10.021Z,7.06
2023-01-06T04:33:36.602Z,7.10
2023-01-06T04:36:03.736Z,7.48
2023-01-06T04:38:30.393Z,7.51
2023-01-06T04:40:56.953Z,7.35
2023-01-06T04:43:24.216Z,7.18
2023-01-06T04:45:50.858Z,7.26
2023-01-06T04:48:17.572Z,7.37
2023-01-06T04:50:44.354Z,7.20
2023-01-06T04:53:12.315Z,7.21
2023-01-06T04:55:40.322Z,7.08
2023-01-06T04:58:07.260Z,7.16
2023-01-06T05:00:34.821Z,7.18
2023-01-06T05:03:01.334Z,7.24
2023-01-06T05:05:27.866Z,7.23
2023-01-06T05:07:54.992Z,7.23
2023-01-06T05:10:21.939Z,7.28
2023-01-06T05:12:48.508Z,7.30
2023-01-06T05:15:15.048Z,7.64
2023-01-06T05:17:41.549Z,7.48
2023-01-06T05:20:08.636Z,7.62
2023-01-06T05:22:35.537Z,7.12
2023-01-06T05:25:02.138Z,7.14
2023-01-06T05:27:28.755Z,7.26
2023-01-06T05:29:55.275Z,7.65
2023-01-06T05:32:21.861Z,7.43
2023-01-06T05:34:48.437Z,7.33
2023-01-06T05:37:14.911Z,7.38
2023-01-06T05:39:41.401Z,7.31
2023-01-06T05:42:07.908Z,7.30
2023-01-06T05:44:34.477Z,7.35
2023-01-06T05:47:01.092Z,7.40
2023-01-06T05:49:27.676Z,7.44
2023-01-06T05:51:54.195Z,7.48
2023-01-06T05:54:20.763Z,7.46
2023-01-06T05:56:47.316Z,7.46
2023-01-06T05:59:13.818Z,7.31
2023-01-06T06:01:40.365Z,7.38
2023-01-06T06:04:07.451Z,7.31
2023-01-06T06:06:34.065Z,7.37
2023-01-06T06:09:00.906Z,7.55
2023-01-06T06:11:27.462Z,7.46
2023-01-06T06:13:56.293Z,7.36
2023-01-06T06:16:27.994Z,7.25
2023-01-06T06:18:57.295Z,7.35
2023-01-06T06:21:26.584Z,7.47
2023-01-06T06:23:54.423Z,7.54
2023-01-06T06:26:21.505Z,7.55
2023-01-06T06:28:48.029Z,7.68
2023-01-06T06:31:26.322Z,7.92
2023-01-06T06:33:55.799Z,7.85
2023-01-06T06:36:22.983Z,7.77
2023-01-06T06:38:51.519Z,7.73
2023-01-06T06:41:19.293Z,7.78
2023-01-06T06:43:46.240Z,7.90
2023-01-06T06:46:12.748Z,8.00
2023-01-06T06:48:40.038Z,7.93
2023-01-06T06:51:12.399Z,7.91
2023-01-06T06:53:40.005Z,7.81
2023-01-06T06:56:08.027Z,7.76
2023-01-06T06:58:35.929Z,7.82
2023-01-06T07:01:13.549Z,7.72
2023-01-06T07:03:41.128Z,7.51
2023-01-06T07:06:10.650Z,7.63
2023-01-06T07:08:37.324Z,7.76
2023-01-06T07:11:04.827Z,7.75
2023-01-06T07:13:31.427Z,7.70
2023-01-06T07:15:58.205Z,7.60
2023-01-06T07:18:24.974Z,7.63
2023-01-06T07:20:53.733Z,7.61
2023-01-06T07:23:21.163Z,7.81
2023-01-06T07:25:55.840Z,7.82
2023-01-06T07:28:22.450Z,7.91
2023-01-06T07:30:49.182Z,8.19
2023-01-06T07:33:16.192Z,8.04
2023-01-06T07:35:43.527Z,7.90
2023-01-06T07:38:10.785Z,7.86
2023-01-06T07:40:37.962Z,7.94
2023-01-06T07:43:09.552Z,8.02
2023-01-06T07:45:36.937Z,8.20
2023-01-06T07:48:04.068Z,8.21
2023-01-06T07:50:31.380Z,8.26
2023-01-06T07:52:59.149Z,8.00
2023-01-06T07:55:25.828Z,7.98
2023-01-06T07:57:52.880Z,7.99
2023-01-06T08:00:19.716Z,7.96
2023-01-06T08:02:46.275Z,7.98
2023-01-06T08:05:13.251Z,7.99
2023-01-06T08:07:39.760Z,8.02
2023-01-06T08:10:07.301Z,7.88
2023-01-06T08:12:33.860Z,7.97
2023-01-06T08:15:00.505Z,8.06
2023-01-06T08:17:27.016Z,8.03
2023-01-06T08:19:53.500Z,8.07
2023-01-06T08:22:20.294Z,8.14
2023-01-06T08:24:46.786Z,8.21
2023-01-06T08:27:13.673Z,8.18
2023-01-06T08:29:40.259Z,8.13
2023-01-06T08:32:10.847Z,8.13
2023-01-06T08:34:38.182Z,8.13
2023-01-06T08:37:04.844Z,8.13
2023-01-06T08:39:31.645Z,8.17
2023-01-06T08:41:58.149Z,8.18
2023-01-06T08:44:24.700Z,8.04
2023-01-06T08:46:51.393Z,8.09
2023-01-06T08:49:17.930Z,8.13
2023-01-06T08:51:44.506Z,8.05
2023-01-06T08:54:11.086Z,8.14
2023-01-06T08:56:39.652Z,8.26
2023-01-06T08:59:06.540Z,8.26
2023-01-06T09:01:36.236Z,8.40
2023-01-06T09:04:05.974Z,8.51
2023-01-06T09:06:33.380Z,8.58
2023-01-06T09:09:01.066Z,8.62
2023-01-06T09:11:27.757Z,8.40
2023-01-06T09:13:54.651Z,8.49
2023-01-06T09:16:22.247Z,8.57
2023-01-06T09:18:50.157Z,8.64
2023-01-06T09:21:19.072Z,8.67
2023-01-06T09:23:46.423Z,8.69
2023-01-06T09:26:14.229Z,8.81
2023-01-06T09:28:41.355Z,8.82
2023-01-06T09:31:08.832Z,8.79
2023-01-06T09:33:35.743Z,8.84
2023-01-06T09:36:02.536Z,8.65
2023-01-06T09:38:29.697Z,8.76
2023-01-06T09:41:26.962Z,8.91
2023-01-06T09:43:59.281Z,8.96
2023-01-06T09:46:31.431Z,8.76
2023-01-06T09:49:41.592Z,8.87
2023-01-06T09:52:23.039Z,8.70
2023-01-06T09:55:14.299Z,8.63
2023-01-06T09:57:46.335Z,8.77
2023-01-06T10:00:53.490Z,9.04
2023-01-06T10:03:23.337Z,9.14
2023-01-06T10:06:08.975Z,9.22
2023-01-06T10:08:59.778Z,9.32
2023-01-06T10:11:48.057Z,9.42
2023-01-06T10:14:23.570Z,9.54
2023-01-06T10:17:08.419Z,9.72
2023-01-06T10:19:50.562Z,9.67
2023-01-06T10:22:42.156Z,9.58
2023-01-06T10:25:27.673Z,9.60
2023-01-06T10:28:01.677Z,9.56
2023-01-06T10:30:56.131Z,9.69
2023-01-06T10:33:28.573Z,9.92
2023-01-06T10:35:56.932Z,9.91
2023-01-06T10:38:30.144Z,9.82
2023-01-06T10:41:10.768Z,9.94
2023-01-06T10:43:37.305Z,9.87
2023-01-06T10:46:03.977Z,9.86
2023-01-06T10:48:32.629Z,10.03
2023-01-06T10:51:06.869Z,10.16
2023-01-06T10:53:33.535Z,10.13
2023-01-06T10:56:02.370Z,10.10
2023-01-06T10:58:46.475Z,10.26
2023-01-06T11:01:15.785Z,10.17
2023-01-06T11:03:45.700Z,10.15
2023-01-06T11:06:27.898Z,10.17
2023-01-06T11:08:55.348Z,10.25
2023-01-06T11:11:28.143Z,10.37
2023-01-06T11:14:02.273Z,10.33
2023-01-06T11:16:32.166Z,10.31
2023-01-06T11:19:03.570Z,10.14
2023-01-06T11:21:45.384Z,10.06
2023-01-06T11:24:26.822Z,10.29
2023-01-06T11:27:30.902Z,10.06
2023-01-06T11:29:57.460Z,10.15
2023-01-06T11:32:29.591Z,10.21
2023-01-06T11:34:58.547Z,10.37
2023-01-06T11:37:37.757Z,10.49
2023-01-06T11:40:17.949Z,10.45
2023-01-06T11:42:49.289Z,10.67
2023-01-06T11:45:43.513Z,10.76
2023-01-06T11:48:37.241Z,10.78
2023-01-06T11:51:06.470Z,10.77
2023-01-06T11:53:34.447Z,10.77
2023-01-06T11:56:19.201Z,10.88
2023-01-06T11:59:03.765Z,10.82
2023-01-06T12:01:33.503Z,10.93
2023-01-06T12:04:27.313Z,10.83
2023-01-06T12:07:03.589Z,10.89
2023-01-06T12:09:36.714Z,10.92
2023-01-06T12:12:07.700Z,10.97
2023-01-06T12:14:37.475Z,11.05
2023-01-06T12:17:12.891Z,11.15
2023-01-06T12:19:45.125Z,11.08
2023-01-06T12:22:35.581Z,11.02
2023-01-06T12:25:03.695Z,11.03
2023-01-06T12:27:45.709Z,10.93
2023-01-06T12:30:25.874Z,11.14
2023-01-06T12:32:56.830Z,11.10
2023-01-06T12:35:29.467Z,11.12
2023-01-06T12:38:01.627Z,11.17
2023-01-06T12:40:36.863Z,11.22
2023-01-06T12:43:30.956Z,11.31
2023-01-06T12:46:21.368Z,11.27
2023-01-06T12:48:53.631Z,11.37
2023-01-06T12:51:38.019Z,11.27
2023-01-06T12:54:17.381Z,11.28
2023-01-06T12:57:12.944Z,11.39
2023-01-06T12:59:57.883Z,11.20
2023-01-06T13:03:04.011Z,11.32
2023-01-06T13:05:47.574Z,11.49
2023-01-06T13:08:32.505Z,11.52
2023-01-06T13:10:59.215Z,11.57
2023-01-06T13:13:39.863Z,11.60
2023-01-06T13:16:29.073Z,11.70
2023-01-06T13:19:14.816Z,11.64
2023-01-06T13:21:43.577Z,11.61
2023-01-06T13:24:34.567Z,11.79
2023-01-06T13:27:22.126Z,11.65
2023-01-06T13:30:13.267Z,11.66
2023-01-06T13:32:51.855Z,11.64
2023-01-06T13:35:24.403Z,11.61
2023-01-06T13:38:35.081Z,11.65
2023-01-06T13:41:04.313Z,11.66
2023-01-06T13:43:34.456Z,11.67
2023-01-06T13:46:06.190Z,11.67
2023-01-06T13:48:37.862Z,11.46
2023-01-06T13:51:07.712Z,11.46
2023-01-06T13:53:38.439Z,11.56
2023-01-06T13:56:14.067Z,11.35
2023-01-06T13:58:45.464Z,11.24
2023-01-06T14:01:13.006Z,11.33
2023-01-06T14:03:41.414Z,11.56
2023-01-06T14:06:38.146Z,11.64
2023-01-06T14:09:15.763Z,11.80
2023-01-06T14:11:42.535Z,11.82
2023-01-06T14:14:30.785Z,11.77
2023-01-06T14:16:58.176Z,11.76
2023-01-06T14:19:35.193Z,11.79
2023-01-06T14:22:32.312Z,11.80
2023-01-06T14:25:05.308Z,11.78
2023-01-06T14:27:46.904Z,11.72
2023-01-06T14:30:30.721Z,11.79
2023-01-06T14:33:21.691Z,11.72
2023-01-06T14:35:48.922Z,11.79
2023-01-06T14:38:26.965Z,11.79
2023-01-06T14:40:59.059Z,11.77
2023-01-06T14:43:35.027Z,11.69
2023-01-06T14:46:08.685Z,11.76
2023-01-06T14:48:42.624Z,11.80
2023-01-06T14:51:16.259Z,11.71
2023-01-06T14:53:49.338Z,11.76
2023-01-06T14:56:19.840Z,11.69
2023-01-06T14:58:46.573Z,11.73
2023-01-06T15:01:25.606Z,11.62
2023-01-06T15:03:58.583Z,11.64
2023-01-06T15:06:26.709Z,11.74
2023-01-06T15:08:55.442Z,11.87
2023-01-06T15:11:28.279Z,11.75
2023-01-06T15:13:55.301Z,11.72
2023-01-06T15:16:38.040Z,11.73
2023-01-06T15:19:15.451Z,11.74
2023-01-06T15:21:45.332Z,11.67
2023-01-06T15:24:35.516Z,11.60
2023-01-06T15:27:07.530Z,11.65
2023-01-06T15:29:35.667Z,11.70
2023-01-06T15:32:03.534Z,11.71
2023-01-06T15:34:37.935Z,11.63
2023-01-06T15:37:06.687Z,11.52
2023-01-06T15:39:35.473Z,11.56
2023-01-06T15:42:07.616Z,11.53
2023-01-06T15:44:38.725Z,11.48
2023-01-06T15:47:11.223Z,11.47
2023-01-06T15:49:42.653Z,11.38
2023-01-06T15:52:32.666Z,11.42
2023-01-06T15:55:02.067Z,11.37
2023-01-06T15:57:32.900Z,11.31
2023-01-06T16:00:05.933Z,11.42
2023-01-06T16:02:33.566Z,11.31
2023-01-06T16:05:01.195Z,11.26
2023-01-06T16:07:36.562Z,11.27
2023-01-06T16:10:03.673Z,11.36
2023-01-06T16:12:30.220Z,11.23
2023-01-06T16:14:56.779Z,11.19
2023-01-06T16:17:33.257Z,11.13
2023-01-06T16:20:08.200Z,11.09
2023-01-06T16:22:57.556Z,11.08
2023-01-06T16:25:28.457Z,11.10
2023-01-06T16:27:58.630Z,11.11
2023-01-06T16:30:30.788Z,11.08
2023-01-06T16:33:00.308Z,11.02
2023-01-06T16:35:29.042Z,11.02
2023-01-06T16:37:56.240Z,10.97
2023-01-06T16:40:25.110Z,10.97
2023-01-06T16:43:00.477Z,11.03
2023-01-06T16:45:31.713Z,10.95
2023-01-06T16:47:58.835Z,10.99
2023-01-06T16:50:54.869Z,10.88
2023-01-06T16:53:23.053Z,10.85
2023-01-06T16:55:52.025Z,10.80
2023-01-06T16:58:22.954Z,10.68
2023-01-06T17:00:52.524Z,10.63
2023-01-06T17:03:24.843Z,10.68
2023-01-06T17:05:52.599Z,10.56
2023-01-06T17:08:27.877Z,10.47
2023-01-06T17:10:54.973Z,10.39
2023-01-06T17:13:44.294Z,10.37
2023-01-06T17:16:11.953Z,10.20
2023-01-06T17:18:59.968Z,10.16
2023-01-06T17:21:45.147Z,10.02
2023-01-06T17:24:25.600Z,9.96
2023-01-06T17:26:57.086Z,9.93
2023-01-06T17:29:24.308Z,9.86
2023-01-06T17:31:55.122Z,9.75
2023-01-06T17:34:34.207Z,9.69
2023-01-06T17:37:15.754Z,9.66
2023-01-06T17:39:44.754Z,9.61
2023-01-06T17:42:11.759Z,9.61
2023-01-06T17:44:48.265Z,9.56
2023-01-06T17:47:15.127Z,9.47
2023-01-06T17:49:47.764Z,9.42
2023-01-06T17:52:19.239Z,9.39
2023-01-06T17:55:12.847Z,9.36
2023-01-06T17:57:42.134Z,9.30
2023-01-06T18:00:22.312Z,9.30
2023-01-06T18:02:55.028Z,9.29
2023-01-06T18:05:24.450Z,9.18
2023-01-06T18:07:54.091Z,9.12
2023-01-06T18:10:21.624Z,9.04
2023-01-06T18:12:48.356Z,9.07
2023-01-06T18:15:27.061Z,9.07
2023-01-06T18:17:55.727Z,8.98
2023-01-06T18:20:22.389Z,8.93
2023-01-06T18:22:49.125Z,8.92
2023-01-06T18:25:22.175Z,8.87
2023-01-06T18:27:51.027Z,8.84
2023-01-06T18:30:24.669Z,8.81
2023-01-06T18:32:52.062Z,8.85
2023-01-06T18:35:30.520Z,8.89
2023-01-06T18:38:02.456Z,8.93
2023-01-06T18:40:30.635Z,8.96
2023-01-06T18:42:57.522Z,8.85
2023-01-06T18:45:29.027Z,8.84
2023-01-06T18:48:00.662Z,8.86
2023-01-06T18:50:34.086Z,8.92
2023-01-06T18:53:14.357Z,8.91
2023-01-06T18:55:46.612Z,8.93
2023-01-06T18:58:23.227Z,9.00
2023-01-06T19:00:52.868Z,8.98
2023-01-06T19:03:29.153Z,8.99
2023-01-06T19:06:10.759Z,9.00
2023-01-06T19:08:40.323Z,9.04
2023-01-06T19:11:32.327Z,8.97
2023-01-06T19:14:01.791Z,8.90
2023-01-06T19:16:39.521Z,8.87
2023-01-06T19:19:18.400Z,8.85
2023-01-06T19:21:45.246Z,8.80
2023-01-06T19:24:26.772Z,8.77
2023-01-06T19:26:54.833Z,8.78
2023-01-06T19:29:27.347Z,8.77
2023-01-06T19:32:13.224Z,8.80
2023-01-06T19:34:40.020Z,8.74
2023-01-06T19:37:18.203Z,8.78
2023-01-06T19:39:50.305Z,8.74
2023-01-06T19:42:27.208Z,8.67
2023-01-06T19:44:58.474Z,8.62
2023-01-06T19:47:27.940Z,8.58
2023-01-06T19:49:58.699Z,8.52
2023-01-06T19:52:35.594Z,8.48
2023-01-06T19:55:14.287Z,8.51
2023-01-06T19:57:49.664Z,8.60
2023-01-06T20:00:29.713Z,8.58
2023-01-06T20:02:59.458Z,8.50
2023-01-06T20:05:27.571Z,8.48
2023-01-06T20:07:54.521Z,8.48
2023-01-06T20:10:21.418Z,8.43
2023-01-06T20:12:49.132Z,8.41
2023-01-06T20:15:16.171Z,8.30
2023-01-06T20:17:42.776Z,8.31
2023-01-06T20:20:09.723Z,8.28
2023-01-06T20:22:36.438Z,8.23
2023-01-06T20:25:03.354Z,8.23
2023-01-06T20:27:29.817Z,8.18
2023-01-06T20:29:56.421Z,8.17
2023-01-06T20:32:24.099Z,8.15
2023-01-06T20:34:50.633Z,8.13
2023-01-06T20:37:17.326Z,8.11
2023-01-06T20:39:43.880Z,8.07
2023-01-06T20:42:13.168Z,7.99
2023-01-06T20:44:39.911Z,8.00
2023-01-06T20:47:06.576Z,7.98
2023-01-06T20:49:33.206Z,7.92
2023-01-06T20:51:59.924Z,7.90
2023-01-06T20:54:26.400Z,7.88
2023-01-06T20:56:53.893Z,7.76
2023-01-06T20:59:21.214Z,7.79
2023-01-06T21:01:47.882Z,7.77
2023-01-06T21:04:14.592Z,7.76
2023-01-06T21:06:41.266Z,7.75
2023-01-06T21:09:07.946Z,7.74
2023-01-06T21:11:34.450Z,7.72
2023-01-06T21:14:00.947Z,7.69
2023-01-06T21:16:27.512Z,7.73
2023-01-06T21:18:54.098Z,7.70
2023-01-06T21:21:21.745Z,7.68
2023-01-06T21:23:48.254Z,7.71
2023-01-06T21:26:14.900Z,7.76
2023-01-06T21:28:41.394Z,7.86
2023-01-06T21:31:08.026Z,7.87
2023-01-06T21:33:34.652Z,7.93
2023-01-06T21:36:01.203Z,7.88
2023-01-06T21:38:27.737Z,7.86
2023-01-06T21:41:14.204Z,7.79
2023-01-06T21:43:40.718Z,7.75
2023-01-06T21:46:07.333Z,7.74
2023-01-06T21:48:33.871Z,7.77
2023-01-06T21:51:00.543Z,7.82
2023-01-06T21:53:29.225Z,7.79
2023-01-06T21:55:55.785Z,7.76
2023-01-06T21:58:23.658Z,7.72
2023-01-06T22:00:50.191Z,7.68
2023-01-06T22:03:16.918Z,7.68
2023-01-06T22:05:44.198Z,7.74
2023-01-06T22:08:10.960Z,7.81
2023-01-06T22:10:42.367Z,7.74
2023-01-06T22:13:12.724Z,7.83
2023-01-06T22:15:40.226Z,7.71
2023-01-06T22:18:07.422Z,7.78
2023-01-06T22:20:34.951Z,7.71
2023-01-06T22:23:05.900Z,7.78
2023-01-06T22:25:32.569Z,7.74
2023-01-06T22:27:59.190Z,7.78
2023-01-06T22:30:27.035Z,7.75
2023-01-06T22:32:53.575Z,7.75
2023-01-06T22:35:20.142Z,7.81
2023-01-06T22:37:46.713Z,7.72
2023-01-06T22:40:14.837Z,7.74
2023-01-06T22:42:41.866Z,7.78
2023-01-06T22:45:09.272Z,7.70
2023-01-06T22:47:36.061Z,7.68
2023-01-06T22:50:03.076Z,7.61
2023-01-06T22:52:29.686Z,7.62
2023-01-06T22:54:56.213Z,7.61
2023-01-06T22:57:22.923Z,7.58
2023-01-06T22:59:49.459Z,7.51
2023-01-06T23:02:16.146Z,7.50
2023-01-06T23:04:42.762Z,7.57
2023-01-06T23:07:09.361Z,7.50
2023-01-06T23:09:36.176Z,7.48
2023-01-06T23:12:02.757Z,7.45
2023-01-06T23:14:29.342Z,7.56
2023-01-06T23:16:55.888Z,7.50
2023-01-06T23:19:22.363Z,7.62
2023-01-06T23:21:48.933Z,7.59
2023-01-06T23:24:15.528Z,7.62
2023-01-06T23:26:44.681Z,7.61
2023-01-06T23:29:12.255Z,7.51
2023-01-06T23:31:44.639Z,7.59
2023-01-06T23:34:14.073Z,7.52
2023-01-06T23:36:41.642Z,7.57
2023-01-06T23:39:12.171Z,7.48
2023-01-06T23:41:38.893Z,7.62
2023-01-06T23:44:06.246Z,7.54
2023-01-06T23:46:38.527Z,7.54
2023-01-06T23:49:06.196Z,7.59
2023-01-06T23:51:33.382Z,7.59
2023-01-06T23:54:01.582Z,7.64
2023-01-06T23:56:30.892Z,7.62
2023-01-06T23:58:59.933Z,7.65
